sensor_id;sensor_type;location;lat;lon;timestamp;noise_LAeq;noise_LA_min;noise_LA_max;noise_LA01;noise_LA95
67298;Laerm;65443;51.436;5.978;2023-05-07T00:00:02;29.83;28.53;31.54;;
67298;Laerm;65443;51.436;5.978;2023-05-07T00:00:13;62.99;28.93;76.10;;
67298;Laerm;65443;51.436;5.978;2023-05-07T00:00:25;32.31;30.39;34.83;;
67298;Laerm;65443;51.436;5.978;2023-05-07T00:00:35;31.90;29.77;36.52;;
67298;Laerm;65443;51.436;5.978;2023-05-07T00:00:46;31.23;29.42;34.25;;
67298;Laerm;65443;51.436;5.978;2023-05-07T00:00:56;32.27;30.19;36.54;;
67298;Laerm;65443;51.436;5.978;2023-05-07T00:01:09;30.64;28.88;32.66;;
67298;Laerm;65443;51.436;5.978;2023-05-07T00:01:21;29.99;28.67;31.57;;
67298;Laerm;65443;51.436;5.978;2023-05-07T00:01:31;29.88;28.34;31.36;;
67298;Laerm;65443;51.436;5.978;2023-05-07T00:01:41;29.62;28.48;33.68;;
67298;Laerm;65443;51.436;5.978;2023-05-07T00:01:52;29.95;28.62;31.49;;
67298;Laerm;65443;51.436;5.978;2023-05-07T00:02:03;30.42;28.28;33.29;;
67298;Laerm;65443;51.436;5.978;2023-05-07T00:02:13;30.78;29.04;32.69;;
67298;Laerm;65443;51.436;5.978;2023-05-07T00:02:24;32.79;30.13;37.15;;
67298;Laerm;65443;51.436;5.978;2023-05-07T00:02:35;32.54;28.70;36.06;;
67298;Laerm;65443;51.436;5.978;2023-05-07T00:02:45;30.43;28.69;32.94;;
67298;Laerm;65443;51.436;5.978;2023-05-07T00:02:56;31.85;28.41;40.11;;
67298;Laerm;65443;51.436;5.978;2023-05-07T00:03:06;44.29;37.60;48.10;;
67298;Laerm;65443;51.436;5.978;2023-05-07T00:03:16;60.60;43.62;69.99;;
67298;Laerm;65443;51.436;5.978;2023-05-07T00:03:27;43.86;29.41;55.42;;
67298;Laerm;65443;51.436;5.978;2023-05-07T00:03:37;30.73;28.84;34.20;;
67298;Laerm;65443;51.436;5.978;2023-05-07T00:03:47;30.66;28.73;33.85;;
67298;Laerm;65443;51.436;5.978;2023-05-07T00:03:58;30.74;28.81;36.42;;
67298;Laerm;65443;51.436;5.978;2023-05-07T00:04:08;31.12;29.03;35.85;;
67298;Laerm;65443;51.436;5.978;2023-05-07T00:04:18;35.46;29.59;46.35;;
67298;Laerm;65443;51.436;5.978;2023-05-07T00:04:29;32.82;29.12;42.30;;
67298;Laerm;65443;51.436;5.978;2023-05-07T00:04:45;39.49;29.33;51.27;;
67298;Laerm;65443;51.436;5.978;2023-05-07T00:04:56;57.98;43.82;68.38;;
67298;Laerm;65443;51.436;5.978;2023-05-07T00:05:06;46.09;41.29;50.67;;
67298;Laerm;65443;51.436;5.978;2023-05-07T00:05:17;36.68;30.22;49.59;;
67298;Laerm;65443;51.436;5.978;2023-05-07T00:05:27;31.12;29.47;32.99;;
67298;Laerm;65443;51.436;5.978;2023-05-07T00:05:38;30.24;28.38;33.31;;
67298;Laerm;65443;51.436;5.978;2023-05-07T00:05:49;30.31;28.83;33.31;;
67298;Laerm;65443;51.436;5.978;2023-05-07T00:05:59;30.56;28.47;34.24;;
67298;Laerm;65443;51.436;5.978;2023-05-07T00:06:10;30.18;28.93;31.85;;
67298;Laerm;65443;51.436;5.978;2023-05-07T00:06:22;30.48;29.16;32.21;;
67298;Laerm;65443;51.436;5.978;2023-05-07T00:06:33;30.17;28.69;31.73;;
67298;Laerm;65443;51.436;5.978;2023-05-07T00:06:43;30.16;28.70;31.98;;
67298;Laerm;65443;51.436;5.978;2023-05-07T00:06:53;30.19;28.59;32.54;;
67298;Laerm;65443;51.436;5.978;2023-05-07T00:07:04;30.33;28.70;32.27;;
67298;Laerm;65443;51.436;5.978;2023-05-07T00:07:14;30.14;28.63;31.72;;
67298;Laerm;65443;51.436;5.978;2023-05-07T00:07:25;29.87;28.39;36.06;;
67298;Laerm;65443;51.436;5.978;2023-05-07T00:07:35;30.15;28.47;34.86;;
67298;Laerm;65443;51.436;5.978;2023-05-07T00:07:46;31.23;28.88;34.79;;
67298;Laerm;65443;51.436;5.978;2023-05-07T00:07:56;31.44;29.16;34.87;;
67298;Laerm;65443;51.436;5.978;2023-05-07T00:08:07;30.75;28.84;33.36;;
67298;Laerm;65443;51.436;5.978;2023-05-07T00:08:17;30.75;28.68;33.50;;
67298;Laerm;65443;51.436;5.978;2023-05-07T00:08:27;29.80;28.16;31.90;;
67298;Laerm;65443;51.436;5.978;2023-05-07T00:08:38;29.66;28.39;32.48;;
67298;Laerm;65443;51.436;5.978;2023-05-07T00:08:48;30.21;28.64;36.91;;
67298;Laerm;65443;51.436;5.978;2023-05-07T00:08:58;30.37;28.67;32.91;;
67298;Laerm;65443;51.436;5.978;2023-05-07T00:09:10;35.50;29.33;43.30;;
67298;Laerm;65443;51.436;5.978;2023-05-07T00:09:21;58.76;42.83;72.72;;
67298;Laerm;65443;51.436;5.978;2023-05-07T00:09:31;45.27;41.06;49.50;;
67298;Laerm;65443;51.436;5.978;2023-05-07T00:09:41;37.66;29.70;45.92;;
67298;Laerm;65443;51.436;5.978;2023-05-07T00:09:52;30.26;28.82;32.30;;
67298;Laerm;65443;51.436;5.978;2023-05-07T00:10:02;29.98;28.60;31.53;;
67298;Laerm;65443;51.436;5.978;2023-05-07T00:10:13;31.03;29.12;33.74;;
67298;Laerm;65443;51.436;5.978;2023-05-07T00:10:23;29.73;28.55;30.93;;
67298;Laerm;65443;51.436;5.978;2023-05-07T00:10:33;29.95;28.21;31.64;;
67298;Laerm;65443;51.436;5.978;2023-05-07T00:10:44;29.96;28.50;31.40;;
67298;Laerm;65443;51.436;5.978;2023-05-07T00:10:54;29.80;28.22;31.13;;
67298;Laerm;65443;51.436;5.978;2023-05-07T00:11:05;30.99;29.15;33.44;;
67298;Laerm;65443;51.436;5.978;2023-05-07T00:11:15;31.54;29.45;33.72;;
67298;Laerm;65443;51.436;5.978;2023-05-07T00:11:25;31.93;30.11;35.22;;
67298;Laerm;65443;51.436;5.978;2023-05-07T00:11:36;33.56;29.72;37.45;;
67298;Laerm;65443;51.436;5.978;2023-05-07T00:11:46;30.31;28.83;32.32;;
67298;Laerm;65443;51.436;5.978;2023-05-07T00:11:56;30.24;28.87;31.98;;
67298;Laerm;65443;51.436;5.978;2023-05-07T00:12:07;30.19;28.75;33.33;;
67298;Laerm;65443;51.436;5.978;2023-05-07T00:12:17;30.24;28.93;32.13;;
67298;Laerm;65443;51.436;5.978;2023-05-07T00:12:27;30.81;28.85;33.39;;
67298;Laerm;65443;51.436;5.978;2023-05-07T00:12:38;37.44;31.31;42.28;;
67298;Laerm;65443;51.436;5.978;2023-05-07T00:12:48;40.10;34.88;44.81;;
67298;Laerm;65443;51.436;5.978;2023-05-07T00:12:59;57.91;39.13;64.86;;
67298;Laerm;65443;51.436;5.978;2023-05-07T00:13:09;44.64;33.28;57.05;;
67298;Laerm;65443;51.436;5.978;2023-05-07T00:13:19;31.88;29.53;34.01;;
67298;Laerm;65443;51.436;5.978;2023-05-07T00:13:30;30.24;28.91;31.93;;
67298;Laerm;65443;51.436;5.978;2023-05-07T00:13:45;29.58;27.83;32.81;;
67298;Laerm;65443;51.436;5.978;2023-05-07T00:13:55;29.34;27.95;31.12;;
67298;Laerm;65443;51.436;5.978;2023-05-07T00:14:05;29.33;28.20;30.78;;
67298;Laerm;65443;51.436;5.978;2023-05-07T00:14:16;29.51;28.20;31.34;;
67298;Laerm;65443;51.436;5.978;2023-05-07T00:14:26;29.61;28.08;33.59;;
67298;Laerm;65443;51.436;5.978;2023-05-07T00:14:36;29.53;27.82;31.09;;
67298;Laerm;65443;51.436;5.978;2023-05-07T00:14:47;29.97;28.33;32.95;;
67298;Laerm;65443;51.436;5.978;2023-05-07T00:14:57;30.14;28.89;32.52;;
67298;Laerm;65443;51.436;5.978;2023-05-07T00:15:07;29.77;28.31;31.47;;
67298;Laerm;65443;51.436;5.978;2023-05-07T00:15:18;29.95;28.22;32.00;;
67298;Laerm;65443;51.436;5.978;2023-05-07T00:15:28;30.29;28.55;32.28;;
67298;Laerm;65443;51.436;5.978;2023-05-07T00:15:38;30.49;29.16;32.56;;
67298;Laerm;65443;51.436;5.978;2023-05-07T00:15:49;30.95;27.94;37.18;;
67298;Laerm;65443;51.436;5.978;2023-05-07T00:15:59;30.66;28.73;34.18;;
67298;Laerm;65443;51.436;5.978;2023-05-07T00:16:09;30.51;28.57;32.07;;
67298;Laerm;65443;51.436;5.978;2023-05-07T00:16:20;31.66;28.71;35.04;;
67298;Laerm;65443;51.436;5.978;2023-05-07T00:16:30;31.96;29.11;35.42;;
67298;Laerm;65443;51.436;5.978;2023-05-07T00:16:40;32.09;30.16;35.29;;
67298;Laerm;65443;51.436;5.978;2023-05-07T00:16:51;33.96;29.84;37.95;;
67298;Laerm;65443;51.436;5.978;2023-05-07T00:17:01;30.54;28.71;32.92;;
67298;Laerm;65443;51.436;5.978;2023-05-07T00:17:11;31.14;28.93;36.76;;
67298;Laerm;65443;51.436;5.978;2023-05-07T00:17:22;31.30;28.74;35.82;;
67298;Laerm;65443;51.436;5.978;2023-05-07T00:17:32;37.74;31.99;43.28;;
67298;Laerm;65443;51.436;5.978;2023-05-07T00:17:43;38.21;32.16;44.59;;
67298;Laerm;65443;51.436;5.978;2023-05-07T00:17:53;33.44;30.57;35.75;;
67298;Laerm;65443;51.436;5.978;2023-05-07T00:18:03;35.27;31.09;42.39;;
67298;Laerm;65443;51.436;5.978;2023-05-07T00:18:14;41.88;30.76;51.85;;
67298;Laerm;65443;51.436;5.978;2023-05-07T00:18:24;60.17;40.06;73.48;;
67298;Laerm;65443;51.436;5.978;2023-05-07T00:18:35;42.42;39.73;48.37;;
67298;Laerm;65443;51.436;5.978;2023-05-07T00:18:45;40.64;33.01;47.11;;
67298;Laerm;65443;51.436;5.978;2023-05-07T00:18:55;54.48;34.12;66.07;;
67298;Laerm;65443;51.436;5.978;2023-05-07T00:19:06;61.82;36.33;73.65;;
67298;Laerm;65443;51.436;5.978;2023-05-07T00:19:16;37.23;33.26;40.58;;
67298;Laerm;65443;51.436;5.978;2023-05-07T00:19:26;37.24;31.12;41.78;;
67298;Laerm;65443;51.436;5.978;2023-05-07T00:19:37;32.94;30.67;35.08;;
67298;Laerm;65443;51.436;5.978;2023-05-07T00:19:47;33.34;29.89;36.55;;
67298;Laerm;65443;51.436;5.978;2023-05-07T00:19:58;31.60;29.53;35.60;;
67298;Laerm;65443;51.436;5.978;2023-05-07T00:20:08;32.72;30.22;39.53;;
67298;Laerm;65443;51.436;5.978;2023-05-07T00:20:18;31.26;29.00;34.91;;
67298;Laerm;65443;51.436;5.978;2023-05-07T00:20:29;30.78;29.23;33.60;;
67298;Laerm;65443;51.436;5.978;2023-05-07T00:20:39;30.41;28.91;32.28;;
67298;Laerm;65443;51.436;5.978;2023-05-07T00:20:49;31.40;29.31;34.77;;
67298;Laerm;65443;51.436;5.978;2023-05-07T00:21:00;31.88;29.17;36.54;;
67298;Laerm;65443;51.436;5.978;2023-05-07T00:21:10;31.12;28.68;37.14;;
67298;Laerm;65443;51.436;5.978;2023-05-07T00:21:20;30.50;28.90;33.07;;
67298;Laerm;65443;51.436;5.978;2023-05-07T00:21:31;31.18;28.65;43.01;;
67298;Laerm;65443;51.436;5.978;2023-05-07T00:21:41;32.05;28.64;48.95;;
67298;Laerm;65443;51.436;5.978;2023-05-07T00:21:52;30.32;28.85;33.35;;
67298;Laerm;65443;51.436;5.978;2023-05-07T00:22:04;30.62;28.47;32.87;;
67298;Laerm;65443;51.436;5.978;2023-05-07T00:22:14;34.12;30.00;39.73;;
67298;Laerm;65443;51.436;5.978;2023-05-07T00:22:24;40.12;34.19;47.71;;
67298;Laerm;65443;51.436;5.978;2023-05-07T00:22:34;56.22;36.49;69.92;;
67298;Laerm;65443;51.436;5.978;2023-05-07T00:22:45;46.03;40.59;52.81;;
67298;Laerm;65443;51.436;5.978;2023-05-07T00:22:55;42.25;31.66;47.73;;
67298;Laerm;65443;51.436;5.978;2023-05-07T00:23:05;32.14;29.38;36.76;;
67298;Laerm;65443;51.436;5.978;2023-05-07T00:23:16;32.07;28.94;38.45;;
67298;Laerm;65443;51.436;5.978;2023-05-07T00:23:26;31.76;28.69;39.87;;
67298;Laerm;65443;51.436;5.978;2023-05-07T00:23:36;31.12;29.09;33.83;;
67298;Laerm;65443;51.436;5.978;2023-05-07T00:23:47;36.31;30.07;49.45;;
67298;Laerm;65443;51.436;5.978;2023-05-07T00:23:57;43.70;33.75;54.06;;
67298;Laerm;65443;51.436;5.978;2023-05-07T00:24:07;43.09;30.29;56.53;;
67298;Laerm;65443;51.436;5.978;2023-05-07T00:24:18;31.07;29.14;34.31;;
67298;Laerm;65443;51.436;5.978;2023-05-07T00:24:28;30.49;28.57;32.55;;
67298;Laerm;65443;51.436;5.978;2023-05-07T00:24:38;29.93;28.12;32.25;;
67298;Laerm;65443;51.436;5.978;2023-05-07T00:24:48;30.83;29.17;32.91;;
67298;Laerm;65443;51.436;5.978;2023-05-07T00:24:59;33.06;30.38;36.71;;
67298;Laerm;65443;51.436;5.978;2023-05-07T00:25:09;35.62;32.82;41.09;;
67298;Laerm;65443;51.436;5.978;2023-05-07T00:25:20;39.41;34.58;44.62;;
67298;Laerm;65443;51.436;5.978;2023-05-07T00:25:30;53.19;38.22;69.23;;
67298;Laerm;65443;51.436;5.978;2023-05-07T00:25:40;63.44;50.63;73.65;;
67298;Laerm;65443;51.436;5.978;2023-05-07T00:25:51;47.70;33.12;54.49;;
67298;Laerm;65443;51.436;5.978;2023-05-07T00:26:02;31.90;29.70;34.91;;
67298;Laerm;65443;51.436;5.978;2023-05-07T00:26:12;30.76;28.55;33.26;;
67298;Laerm;65443;51.436;5.978;2023-05-07T00:26:23;30.67;28.75;35.87;;
67298;Laerm;65443;51.436;5.978;2023-05-07T00:26:33;29.97;28.58;32.85;;
67298;Laerm;65443;51.436;5.978;2023-05-07T00:26:43;29.91;27.70;32.24;;
67298;Laerm;65443;51.436;5.978;2023-05-07T00:26:54;29.79;27.95;32.10;;
67298;Laerm;65443;51.436;5.978;2023-05-07T00:27:04;29.68;27.83;31.98;;
67298;Laerm;65443;51.436;5.978;2023-05-07T00:27:15;29.41;27.81;31.86;;
67298;Laerm;65443;51.436;5.978;2023-05-07T00:27:25;29.32;27.80;31.54;;
67298;Laerm;65443;51.436;5.978;2023-05-07T00:27:36;29.62;28.21;30.85;;
67298;Laerm;65443;51.436;5.978;2023-05-07T00:27:46;29.98;28.55;34.62;;
67298;Laerm;65443;51.436;5.978;2023-05-07T00:27:56;30.37;28.90;32.79;;
67298;Laerm;65443;51.436;5.978;2023-05-07T00:28:12;29.82;28.27;31.40;;
67298;Laerm;65443;51.436;5.978;2023-05-07T00:28:22;30.23;28.74;32.80;;
67298;Laerm;65443;51.436;5.978;2023-05-07T00:28:33;30.36;28.75;32.04;;
67298;Laerm;65443;51.436;5.978;2023-05-07T00:28:43;30.80;28.92;36.73;;
67298;Laerm;65443;51.436;5.978;2023-05-07T00:28:53;30.33;28.44;32.92;;
67298;Laerm;65443;51.436;5.978;2023-05-07T00:29:04;31.99;28.94;38.33;;
67298;Laerm;65443;51.436;5.978;2023-05-07T00:29:14;33.39;29.50;42.25;;
67298;Laerm;65443;51.436;5.978;2023-05-07T00:29:24;30.44;28.37;45.08;;
67298;Laerm;65443;51.436;5.978;2023-05-07T00:29:35;29.67;28.22;33.45;;
67298;Laerm;65443;51.436;5.978;2023-05-07T00:29:46;29.98;28.58;32.48;;
67298;Laerm;65443;51.436;5.978;2023-05-07T00:29:57;31.22;29.09;34.51;;
67298;Laerm;65443;51.436;5.978;2023-05-07T00:30:07;31.45;29.11;34.11;;
67298;Laerm;65443;51.436;5.978;2023-05-07T00:30:18;31.50;29.16;35.95;;
67298;Laerm;65443;51.436;5.978;2023-05-07T00:30:28;37.36;29.38;49.92;;
67298;Laerm;65443;51.436;5.978;2023-05-07T00:30:38;35.43;29.22;45.56;;
67298;Laerm;65443;51.436;5.978;2023-05-07T00:30:49;35.46;29.24;45.20;;
67298;Laerm;65443;51.436;5.978;2023-05-07T00:30:59;30.89;28.51;34.64;;
67298;Laerm;65443;51.436;5.978;2023-05-07T00:31:09;62.04;29.19;77.72;;
67298;Laerm;65443;51.436;5.978;2023-05-07T00:31:20;31.56;29.02;36.84;;
67298;Laerm;65443;51.436;5.978;2023-05-07T00:31:30;31.35;28.57;34.90;;
67298;Laerm;65443;51.436;5.978;2023-05-07T00:31:40;36.12;30.33;48.41;;
67298;Laerm;65443;51.436;5.978;2023-05-07T00:31:50;33.03;29.55;37.42;;
67298;Laerm;65443;51.436;5.978;2023-05-07T00:32:01;34.75;30.86;40.08;;
67298;Laerm;65443;51.436;5.978;2023-05-07T00:32:11;33.81;30.41;41.73;;
67298;Laerm;65443;51.436;5.978;2023-05-07T00:32:21;33.12;29.15;39.82;;
67298;Laerm;65443;51.436;5.978;2023-05-07T00:32:32;31.63;28.94;44.69;;
67298;Laerm;65443;51.436;5.978;2023-05-07T00:32:42;31.96;29.48;35.00;;
67298;Laerm;65443;51.436;5.978;2023-05-07T00:32:55;34.51;29.61;48.93;;
67298;Laerm;65443;51.436;5.978;2023-05-07T00:33:05;38.32;31.89;44.96;;
67298;Laerm;65443;51.436;5.978;2023-05-07T00:33:16;38.55;31.16;45.23;;
67298;Laerm;65443;51.436;5.978;2023-05-07T00:33:26;37.73;30.73;48.12;;
67298;Laerm;65443;51.436;5.978;2023-05-07T00:33:37;46.39;34.32;56.22;;
67298;Laerm;65443;51.436;5.978;2023-05-07T00:33:47;32.56;29.55;35.23;;
67298;Laerm;65443;51.436;5.978;2023-05-07T00:33:58;31.16;29.00;37.89;;
67298;Laerm;65443;51.436;5.978;2023-05-07T00:34:08;33.12;29.11;40.95;;
67298;Laerm;65443;51.436;5.978;2023-05-07T00:34:18;40.09;32.30;46.92;;
67298;Laerm;65443;51.436;5.978;2023-05-07T00:34:29;55.12;44.44;64.14;;
67298;Laerm;65443;51.436;5.978;2023-05-07T00:34:39;58.90;49.24;71.16;;
67298;Laerm;65443;51.436;5.978;2023-05-07T00:34:50;47.76;44.89;54.18;;
67298;Laerm;65443;51.436;5.978;2023-05-07T00:35:01;57.23;34.13;65.44;;
67298;Laerm;65443;51.436;5.978;2023-05-07T00:35:11;33.23;31.02;36.67;;
67298;Laerm;65443;51.436;5.978;2023-05-07T00:35:21;32.50;30.36;40.39;;
67298;Laerm;65443;51.436;5.978;2023-05-07T00:35:31;33.61;30.62;37.25;;
67298;Laerm;65443;51.436;5.978;2023-05-07T00:35:42;57.38;36.01;64.09;;
67298;Laerm;65443;51.436;5.978;2023-05-07T00:35:52;45.28;40.96;52.79;;
67298;Laerm;65443;51.436;5.978;2023-05-07T00:36:04;40.32;31.04;45.09;;
67298;Laerm;65443;51.436;5.978;2023-05-07T00:36:15;31.38;29.34;33.92;;
67298;Laerm;65443;51.436;5.978;2023-05-07T00:36:25;30.42;28.81;32.23;;
67298;Laerm;65443;51.436;5.978;2023-05-07T00:36:36;31.16;28.90;44.04;;
67298;Laerm;65443;51.436;5.978;2023-05-07T00:36:46;32.91;29.70;37.07;;
67298;Laerm;65443;51.436;5.978;2023-05-07T00:36:56;37.54;33.95;46.90;;
67298;Laerm;65443;51.436;5.978;2023-05-07T00:37:07;39.45;35.04;45.58;;
67298;Laerm;65443;51.436;5.978;2023-05-07T00:37:17;60.79;42.82;74.01;;
67298;Laerm;65443;51.436;5.978;2023-05-07T00:37:27;39.43;32.21;45.40;;
67298;Laerm;65443;51.436;5.978;2023-05-07T00:37:38;35.20;31.38;38.65;;
67298;Laerm;65443;51.436;5.978;2023-05-07T00:37:48;30.97;29.48;33.01;;
67298;Laerm;65443;51.436;5.978;2023-05-07T00:37:59;31.01;28.84;38.04;;
67298;Laerm;65443;51.436;5.978;2023-05-07T00:38:09;30.16;28.82;32.32;;
67298;Laerm;65443;51.436;5.978;2023-05-07T00:38:19;30.12;28.61;38.88;;
67298;Laerm;65443;51.436;5.978;2023-05-07T00:38:30;30.91;28.22;34.23;;
67298;Laerm;65443;51.436;5.978;2023-05-07T00:38:40;33.25;30.40;37.26;;
67298;Laerm;65443;51.436;5.978;2023-05-07T00:38:50;30.30;28.68;31.85;;
67298;Laerm;65443;51.436;5.978;2023-05-07T00:39:01;29.64;28.17;30.92;;
67298;Laerm;65443;51.436;5.978;2023-05-07T00:39:13;29.69;28.30;30.90;;
67298;Laerm;65443;51.436;5.978;2023-05-07T00:39:23;29.87;28.42;36.35;;
67298;Laerm;65443;51.436;5.978;2023-05-07T00:39:34;30.38;28.49;42.51;;
67298;Laerm;65443;51.436;5.978;2023-05-07T00:39:44;29.74;27.83;32.09;;
67298;Laerm;65443;51.436;5.978;2023-05-07T00:39:54;29.74;28.28;31.57;;
67298;Laerm;65443;51.436;5.978;2023-05-07T00:40:05;29.84;28.59;32.01;;
67298;Laerm;65443;51.436;5.978;2023-05-07T00:40:17;29.40;28.10;30.62;;
67298;Laerm;65443;51.436;5.978;2023-05-07T00:40:27;29.60;28.21;30.82;;
67298;Laerm;65443;51.436;5.978;2023-05-07T00:40:38;29.61;28.16;31.32;;
67298;Laerm;65443;51.436;5.978;2023-05-07T00:40:48;29.63;28.26;31.35;;
67298;Laerm;65443;51.436;5.978;2023-05-07T00:40:58;29.56;27.80;31.26;;
67298;Laerm;65443;51.436;5.978;2023-05-07T00:41:09;29.71;28.31;31.49;;
67298;Laerm;65443;51.436;5.978;2023-05-07T00:41:19;30.04;28.49;31.93;;
67298;Laerm;65443;51.436;5.978;2023-05-07T00:41:30;29.54;28.16;31.37;;
67298;Laerm;65443;51.436;5.978;2023-05-07T00:41:43;29.55;28.35;31.19;;
67298;Laerm;65443;51.436;5.978;2023-05-07T00:41:53;29.95;28.39;31.52;;
67298;Laerm;65443;51.436;5.978;2023-05-07T00:42:03;30.41;28.52;36.83;;
67298;Laerm;65443;51.436;5.978;2023-05-07T00:42:14;30.11;28.82;31.87;;
67298;Laerm;65443;51.436;5.978;2023-05-07T00:42:25;30.33;28.89;33.24;;
67298;Laerm;65443;51.436;5.978;2023-05-07T00:42:35;30.13;28.59;32.58;;
67298;Laerm;65443;51.436;5.978;2023-05-07T00:42:46;30.13;28.48;34.33;;
67298;Laerm;65443;51.436;5.978;2023-05-07T00:42:57;30.20;28.59;32.97;;
67298;Laerm;65443;51.436;5.978;2023-05-07T00:43:08;30.10;28.11;32.73;;
67298;Laerm;65443;51.436;5.978;2023-05-07T00:43:18;30.64;28.50;39.04;;
67298;Laerm;65443;51.436;5.978;2023-05-07T00:43:29;36.02;29.06;49.51;;
67298;Laerm;65443;51.436;5.978;2023-05-07T00:43:39;30.06;28.48;35.40;;
67298;Laerm;65443;51.436;5.978;2023-05-07T00:43:50;29.96;28.39;33.41;;
67298;Laerm;65443;51.436;5.978;2023-05-07T00:44:01;30.02;28.12;32.33;;
67298;Laerm;65443;51.436;5.978;2023-05-07T00:44:12;30.02;28.75;31.74;;
67298;Laerm;65443;51.436;5.978;2023-05-07T00:44:23;29.85;28.32;31.46;;
67298;Laerm;65443;51.436;5.978;2023-05-07T00:44:33;29.77;28.34;31.30;;
67298;Laerm;65443;51.436;5.978;2023-05-07T00:44:43;29.79;28.45;35.30;;
67298;Laerm;65443;51.436;5.978;2023-05-07T00:44:54;30.23;28.73;31.89;;
67298;Laerm;65443;51.436;5.978;2023-05-07T00:45:05;30.03;28.40;31.81;;
67298;Laerm;65443;51.436;5.978;2023-05-07T00:45:17;29.83;28.38;31.49;;
67298;Laerm;65443;51.436;5.978;2023-05-07T00:45:28;38.00;30.18;43.09;;
67298;Laerm;65443;51.436;5.978;2023-05-07T00:45:39;46.22;40.68;54.19;;
67298;Laerm;65443;51.436;5.978;2023-05-07T00:45:49;59.61;39.34;67.06;;
67298;Laerm;65443;51.436;5.978;2023-05-07T00:45:59;35.78;31.03;40.92;;
67298;Laerm;65443;51.436;5.978;2023-05-07T00:46:10;30.74;28.91;34.91;;
67298;Laerm;65443;51.436;5.978;2023-05-07T00:46:22;29.68;28.34;31.24;;
67298;Laerm;65443;51.436;5.978;2023-05-07T00:46:32;29.48;28.05;33.24;;
67298;Laerm;65443;51.436;5.978;2023-05-07T00:46:43;29.42;27.89;30.88;;
67298;Laerm;65443;51.436;5.978;2023-05-07T00:46:55;29.34;27.48;31.14;;
67298;Laerm;65443;51.436;5.978;2023-05-07T00:47:06;29.73;28.21;31.86;;
67298;Laerm;65443;51.436;5.978;2023-05-07T00:47:17;30.19;28.32;32.32;;
67298;Laerm;65443;51.436;5.978;2023-05-07T00:47:27;29.93;28.25;31.65;;
67298;Laerm;65443;51.436;5.978;2023-05-07T00:47:38;30.11;28.43;31.71;;
67298;Laerm;65443;51.436;5.978;2023-05-07T00:47:48;29.77;28.34;32.14;;
67298;Laerm;65443;51.436;5.978;2023-05-07T00:48:00;30.11;28.56;32.71;;
67298;Laerm;65443;51.436;5.978;2023-05-07T00:48:10;30.39;28.81;31.92;;
67298;Laerm;65443;51.436;5.978;2023-05-07T00:48:21;30.07;28.41;31.87;;
67298;Laerm;65443;51.436;5.978;2023-05-07T00:48:31;30.27;28.68;35.88;;
67298;Laerm;65443;51.436;5.978;2023-05-07T00:48:42;29.76;28.17;32.93;;
67298;Laerm;65443;51.436;5.978;2023-05-07T00:48:53;29.66;28.08;31.53;;
67298;Laerm;65443;51.436;5.978;2023-05-07T00:49:03;29.97;27.99;31.79;;
67298;Laerm;65443;51.436;5.978;2023-05-07T00:49:15;29.88;28.21;31.87;;
67298;Laerm;65443;51.436;5.978;2023-05-07T00:49:26;29.73;28.41;32.23;;
67298;Laerm;65443;51.436;5.978;2023-05-07T00:49:43;29.76;28.26;31.65;;
67298;Laerm;65443;51.436;5.978;2023-05-07T00:49:54;29.73;28.47;31.56;;
67298;Laerm;65443;51.436;5.978;2023-05-07T00:50:05;29.96;28.46;32.41;;
67298;Laerm;65443;51.436;5.978;2023-05-07T00:50:15;29.85;28.34;32.56;;
67298;Laerm;65443;51.436;5.978;2023-05-07T00:50:27;30.11;28.03;32.74;;
67298;Laerm;65443;51.436;5.978;2023-05-07T00:50:37;29.38;27.90;32.24;;
67298;Laerm;65443;51.436;5.978;2023-05-07T00:50:48;29.73;28.01;34.62;;
67298;Laerm;65443;51.436;5.978;2023-05-07T00:50:58;29.71;28.03;33.22;;
67298;Laerm;65443;51.436;5.978;2023-05-07T00:51:09;29.91;28.32;32.34;;
67298;Laerm;65443;51.436;5.978;2023-05-07T00:51:21;29.60;28.31;31.05;;
67298;Laerm;65443;51.436;5.978;2023-05-07T00:51:32;29.51;27.91;32.88;;
67298;Laerm;65443;51.436;5.978;2023-05-07T00:51:43;29.63;28.15;31.37;;
67298;Laerm;65443;51.436;5.978;2023-05-07T00:51:53;29.67;28.35;31.71;;
67298;Laerm;65443;51.436;5.978;2023-05-07T00:52:05;29.53;28.03;31.72;;
67298;Laerm;65443;51.436;5.978;2023-05-07T00:52:16;29.51;28.05;31.32;;
67298;Laerm;65443;51.436;5.978;2023-05-07T00:52:27;29.58;27.95;31.13;;
67298;Laerm;65443;51.436;5.978;2023-05-07T00:52:37;29.37;28.01;31.18;;
67298;Laerm;65443;51.436;5.978;2023-05-07T00:52:48;33.44;28.22;41.69;;
67298;Laerm;65443;51.436;5.978;2023-05-07T00:52:58;32.20;28.91;36.34;;
67298;Laerm;65443;51.436;5.978;2023-05-07T00:53:09;29.73;28.42;31.62;;
67298;Laerm;65443;51.436;5.978;2023-05-07T00:53:20;29.43;27.75;33.11;;
67298;Laerm;65443;51.436;5.978;2023-05-07T00:53:30;29.76;28.12;32.16;;
67298;Laerm;65443;51.436;5.978;2023-05-07T00:53:41;29.90;27.99;33.87;;
67298;Laerm;65443;51.436;5.978;2023-05-07T00:53:51;29.71;28.24;32.29;;
67298;Laerm;65443;51.436;5.978;2023-05-07T00:54:02;29.63;28.19;32.03;;
67298;Laerm;65443;51.436;5.978;2023-05-07T00:54:13;29.97;28.05;32.16;;
67298;Laerm;65443;51.436;5.978;2023-05-07T00:54:23;30.15;28.22;37.95;;
67298;Laerm;65443;51.436;5.978;2023-05-07T00:54:33;30.06;28.21;36.94;;
67298;Laerm;65443;51.436;5.978;2023-05-07T00:54:44;30.08;27.94;33.43;;
67298;Laerm;65443;51.436;5.978;2023-05-07T00:54:55;30.01;28.54;33.50;;
67298;Laerm;65443;51.436;5.978;2023-05-07T00:55:06;31.34;28.70;36.77;;
67298;Laerm;65443;51.436;5.978;2023-05-07T00:55:16;32.61;28.90;46.37;;
67298;Laerm;65443;51.436;5.978;2023-05-07T00:55:27;32.04;28.65;41.92;;
67298;Laerm;65443;51.436;5.978;2023-05-07T00:55:38;33.07;28.96;41.85;;
67298;Laerm;65443;51.436;5.978;2023-05-07T00:55:48;34.38;29.42;48.36;;
67298;Laerm;65443;51.436;5.978;2023-05-07T00:55:59;35.00;29.21;45.02;;
67298;Laerm;65443;51.436;5.978;2023-05-07T00:56:10;34.04;29.46;48.28;;
67298;Laerm;65443;51.436;5.978;2023-05-07T00:56:21;31.33;28.80;39.76;;
67298;Laerm;65443;51.436;5.978;2023-05-07T00:56:32;31.11;28.61;34.61;;
67298;Laerm;65443;51.436;5.978;2023-05-07T00:56:42;30.72;28.88;33.31;;
67298;Laerm;65443;51.436;5.978;2023-05-07T00:56:53;30.30;28.69;33.09;;
67298;Laerm;65443;51.436;5.978;2023-05-07T00:57:04;30.31;28.38;33.44;;
67298;Laerm;65443;51.436;5.978;2023-05-07T00:57:15;30.26;28.89;33.20;;
67298;Laerm;65443;51.436;5.978;2023-05-07T00:57:25;30.53;28.91;35.99;;
67298;Laerm;65443;51.436;5.978;2023-05-07T00:57:36;30.98;29.11;36.01;;
67298;Laerm;65443;51.436;5.978;2023-05-07T00:57:46;31.06;28.76;35.22;;
67298;Laerm;65443;51.436;5.978;2023-05-07T00:57:57;30.90;28.96;37.46;;
67298;Laerm;65443;51.436;5.978;2023-05-07T00:58:07;31.02;28.67;38.30;;
67298;Laerm;65443;51.436;5.978;2023-05-07T00:58:18;31.11;28.78;42.59;;
67298;Laerm;65443;51.436;5.978;2023-05-07T00:58:29;30.55;28.69;36.90;;
67298;Laerm;65443;51.436;5.978;2023-05-07T00:58:40;31.89;28.48;41.04;;
67298;Laerm;65443;51.436;5.978;2023-05-07T00:58:50;31.71;28.47;41.76;;
67298;Laerm;65443;51.436;5.978;2023-05-07T00:59:01;34.63;28.58;48.55;;
67298;Laerm;65443;51.436;5.978;2023-05-07T00:59:12;38.31;29.49;52.83;;
67298;Laerm;65443;51.436;5.978;2023-05-07T00:59:22;40.71;30.31;54.56;;